McClure: Past 24 Hour Conditions

 

Taloyoak Airport

02:00 PM MDT 01 October 2014
This table is a summary of hourly weather conditions for the past 24 hours.
Date / Time
(MDT)
Wind(knots) Conditions Visibility(km) Pressure(kPa) Air tempC) Relative humidity(%) Dew pointC) Wind Chill
01 October 2014
14:00 NW 8 Sunny 24 101.9 -5 72 -9 -10
13:00 NW 8 Sunny 24 101.9 -5 76 -9 -11
12:00 NNW 15 Sunny 24 101.9 -6 71 -10 -14
11:00 NNW 16 Sunny 24 101.9 -6 71 -11 -15
10:00 NW 16 gust 21 Sunny 24 101.9 -8 73 -12 -17
9:00 NW 19 Sunny 24 101.9 -8 68 -13 -17
8:00 WNW 14 Sunny 24 101.9 -9 81 -11 -17
7:00 NW 15 gust 20 Sunny 24 101.9 -9 81 -11 -17
6:00 NNW 9 Clear 24 101.9 -9 81 -12 -16
5:00 NNW 12 Clear 24 101.9 -11 76 -14 -19
4:00 NW 10 Clear 24 101.9 -10 82 -13 -18
3:00 NW 13 gust 18 Clear 24 102.0 -10 77 -13 -18
2:00 NW 19 gust 24 Clear 24 102.0 -9 76 -13 -19
1:00 NNW 18 gust 24 Clear 24 102.0 -9 76 -13 -19
0:00 NW 20 Clear 24 102.0 -9 78 -12 -19
30 September 2014
23:00 NW 16 Clear 24 102.0 -9 78 -12 -18
22:00 NW 21 Clear 24 102.0 -9 81 -11 -19
21:00 NW 17 Clear 24 102.1 -8 77 -11 -17
20:00 NW 18 gust 23 Clear 24 102.0 -8 80 -11 -18
19:00 NW 11 gust 16 Mainly Clear 24 102.0 -8 80 -11 -16
18:00 NW 11 gust 19 Mainly Clear 24 102.1 -8 80 -11 -15
17:00 WNW 18 gust 25 Drifting Snow 24 102.0 -7 81 -10 -17
16:00 NW 20 gust 26 Drifting Snow 24 102.0 -7 79 -10 -16
15:00 NW 22 gust 28 Drifting Snow 24 102.0 -7 82 -9 -17
14:00 NNW 25 Drifting Snow 24 102.1 -7 82 -10 -17
 
Map of Arctic - Western Arctic marine weather areas Herschel Island Komakuk Beach Shingle Point Airport Aklavik Airport Cape Parry Airport Fort Good Hope Airport Tulita Airport Inuvik Airport Keats Point Norman Wells Airport Paulatuk Airport Pelly Island Tuktoyaktuk Airport Kugluktuk Airport Gjoa Haven Airport Hat Island Kugaaruk Airport Shepherd Bay Airport CFS Alert Arctic Bay Cambridge Bay Airport Cape Peel West Eureka Airport Grise Fiord Airport Hall Beach Airport Igloolik Airport Isachsen Pond Inlet Airport Rea Point Repulse Bay Airport Resolute Airport Stefansson Island Taloyoak Airport Aulavik National Park Ulukhaktok Airport Sachs Harbour Airport Thomsen River Liverpool Bay Little Chicago Storm Hills Croker River Mould Bay Bathurst Inlet Fort Ross Gateshead Island Svartevaeg
Legend: buoyBuoy land stationLand Station » US Marine Weather